Loos, Canada
Current Conditions -  °F | °C
As of 6:00 AM on Thursday 30 Oct 2014 (Local Time) from CYXS Reporting Station
Overcast Overcast  
Wind Chill:   Ceiling: 4300
Heat Index:   Visibility: 9mi
Dew Point:   Wind: 6mph
Humidity: 100%   Direction: 330°NNW
Pressure: 29.9"   Gusts: NA
Location:  53.6°N, 120.72°W
Report Text: CYXS 301300Z AUTO 33005KT 9SM OVC043 04/04 A2990 RMK SLP146
Loading
Personal Weather Stations






























Interactive Weather Map
Tropical Storm Tracking
New forecast layout! Learn more

10-Day Weather Forecast

Advertisements
Track Severe Weather on mobile